Time;durP1;ratioP1;P1;durP2;ratioP2;P2;SDS_P1;SDS_P2;PMS_P1;PMS_P2;Temp;Humidity;BMP_temperature;BMP_pressure;BME280_temperature;BME280_humidity;BME280_pressure;Samples;Min_cycle;Max_cycle;Signal;HPM_P1;HPM_P2
2021/08/03 00:00:33;;;;;;;0.98;0.50;;;;;;;13.70;52.17;101403.19;5025807;28;20115;-69
2021/08/03 00:03:01;;;;;;;2.58;0.40;;;;;;;13.70;51.58;101400.56;5030174;28;20043;-72
2021/08/03 00:05:33;;;;;;;2.10;0.50;;;;;;;13.62;52.18;101400.03;5024925;28;20632;-69
2021/08/03 00:08:32;;;;;;;1.85;0.55;;;;;;;13.60;52.58;101399.25;5028526;28;20052;-70
2021/08/03 00:11:02;;;;;;;3.40;0.52;;;;;;;13.60;52.16;101397.47;5014081;28;20049;-72
2021/08/03 00:13:29;;;;;;;2.10;0.68;;;;;;;13.66;51.72;101404.22;5026245;28;20379;-70
2021/08/03 00:16:01;;;;;;;3.22;0.60;;;;;;;13.65;52.12;101392.00;5027723;28;20059;-70
2021/08/03 00:18:29;;;;;;;2.70;1.10;;;;;;;13.42;52.26;101393.84;5028111;28;20496;-71
2021/08/03 00:20:56;;;;;;;1.33;0.50;;;;;;;13.59;52.43;101392.31;5028187;28;20116;-70
2021/08/03 00:23:22;;;;;;;3.72;0.50;;;;;;;13.76;52.07;101397.63;5026154;28;20029;-70
2021/08/03 00:25:51;;;;;;;1.08;0.47;;;;;;;13.87;51.83;101395.38;5026815;28;20041;-72
2021/08/03 00:28:16;;;;;;;2.42;0.50;;;;;;;13.89;51.42;101401.41;5021650;28;20521;-70
2021/08/03 00:30:43;;;;;;;1.42;0.63;;;;;;;13.90;51.57;101397.88;5027055;28;20040;-72
2021/08/03 00:33:08;;;;;;;3.38;0.60;;;;;;;13.95;51.29;101395.03;5027084;28;20132;-70
2021/08/03 00:35:34;;;;;;;1.05;0.65;;;;;;;13.93;51.01;101400.34;5029108;28;20120;-72
2021/08/03 00:38:00;;;;;;;0.70;0.50;;;;;;;13.93;51.38;101400.34;5028032;28;20068;-71
2021/08/03 00:40:28;;;;;;;3.05;0.32;;;;;;;13.98;51.02;101396.66;5012630;28;20388;-70
2021/08/03 00:42:54;;;;;;;0.70;0.30;;;;;;;13.94;51.19;101394.19;5029708;28;20400;-71
2021/08/03 00:45:21;;;;;;;2.00;0.30;;;;;;;14.02;51.15;101400.84;5025712;28;20478;-70
2021/08/03 00:47:49;;;;;;;0.60;0.20;;;;;;;14.06;50.94;101394.53;5026560;28;20029;-70
2021/08/03 00:50:16;;;;;;;3.88;0.25;;;;;;;14.01;50.08;101391.25;5013009;28;20474;-69
2021/08/03 00:52:42;;;;;;;4.60;0.30;;;;;;;14.01;50.61;101393.88;5028328;28;20109;-70
2021/08/03 00:55:10;;;;;;;1.15;0.35;;;;;;;14.15;50.15;101400.22;5006797;28;20376;-71
2021/08/03 00:57:38;;;;;;;1.88;0.30;;;;;;;14.07;50.13;101394.44;5025209;28;20044;-71
2021/08/03 01:00:06;;;;;;;1.52;0.20;;;;;;;14.01;50.15;101396.50;5026676;28;20338;-70
2021/08/03 01:02:32;;;;;;;2.55;0.20;;;;;;;14.01;50.48;101401.75;5028280;28;20345;-70
2021/08/03 01:05:00;;;;;;;1.95;0.20;;;;;;;14.01;50.55;101399.13;5023742;28;20572;-69
2021/08/03 01:07:56;;;;;;;2.90;0.40;;;;;;;13.81;51.13;101395.66;5027910;28;20079;-70
2021/08/03 01:10:44;;;;;;;2.28;0.45;;;;;;;13.78;51.23;101400.19;5027332;28;20423;-70
2021/08/03 01:13:44;;;;;;;1.80;0.25;;;;;;;13.85;51.26;101401.63;5027806;28;20037;-69
2021/08/03 01:16:24;;;;;;;1.00;0.30;;;;;;;13.77;51.06;101399.34;5026278;28;20094;-70
2021/08/03 01:18:58;;;;;;;0.95;0.20;;;;;;;13.85;51.07;101404.25;5024731;28;20067;-69
2021/08/03 01:21:30;;;;;;;0.47;0.20;;;;;;;13.92;51.41;101397.81;5026400;28;20394;-69
2021/08/03 01:24:06;;;;;;;1.17;0.45;;;;;;;13.72;51.81;101401.34;5027766;28;20410;-70
2021/08/03 01:27:14;;;;;;;3.53;0.40;;;;;;;13.92;51.53;101401.28;5027694;28;20292;-70
2021/08/03 01:29:42;;;;;;;0.57;0.30;;;;;;;13.84;51.54;101395.50;5031110;28;20080;-70
2021/08/03 01:32:09;;;;;;;3.17;0.80;;;;;;;13.87;51.66;101389.25;5008146;28;20033;-69
2021/08/03 01:34:45;;;;;;;2.22;0.38;;;;;;;13.93;51.95;101391.63;5024156;28;20657;-70
2021/08/03 01:37:17;;;;;;;1.10;0.35;;;;;;;13.83;51.93;101390.31;5026256;28;20494;-71
2021/08/03 01:39:48;;;;;;;1.00;0.35;;;;;;;13.91;51.93;101391.69;5028453;28;20808;-70
2021/08/03 01:42:17;;;;;;;2.28;0.43;;;;;;;13.84;52.26;101384.16;5026330;28;20033;-71
2021/08/03 01:44:43;;;;;;;1.45;0.40;;;;;;;13.71;52.59;101378.59;5010814;28;20033;-70
2021/08/03 01:47:10;;;;;;;1.15;0.40;;;;;;;13.85;52.41;101381.47;5008718;28;20333;-73
2021/08/03 01:49:43;;;;;;;1.42;0.70;;;;;;;13.86;52.10;101388.41;5026167;28;20052;-71
2021/08/03 01:52:14;;;;;;;1.17;0.30;;;;;;;13.88;52.06;101389.19;5025987;28;20033;-70
2021/08/03 01:54:44;;;;;;;2.15;0.30;;;;;;;13.86;52.12;101393.69;5008973;28;20030;-71
2021/08/03 01:57:10;;;;;;;1.73;0.30;;;;;;;13.92;52.28;101387.31;5027200;28;20202;-71
2021/08/03 01:59:38;;;;;;;2.05;0.55;;;;;;;13.86;52.00;101383.16;5024037;28;20033;-70
2021/08/03 02:02:05;;;;;;;0.55;0.28;;;;;;;13.79;52.31;101386.16;5029072;28;20128;-70
2021/08/03 02:04:33;;;;;;;4.88;0.40;;;;;;;13.69;52.47;101377.81;5028897;28;20028;-70
2021/08/03 02:07:00;;;;;;;0.80;0.35;;;;;;;13.62;52.44;101390.38;5028314;28;20025;-70
2021/08/03 02:09:26;;;;;;;2.67;0.30;;;;;;;13.60;52.63;101396.63;5026894;28;20037;-69
2021/08/03 02:11:53;;;;;;;1.50;0.45;;;;;;;13.48;52.43;101395.38;5025480;28;20053;-71
2021/08/03 02:14:23;;;;;;;2.60;0.40;;;;;;;13.34;52.94;101393.34;5029480;28;20565;-70
2021/08/03 02:17:02;;;;;;;1.15;0.20;;;;;;;13.26;53.08;101393.66;5030637;28;20041;-70
2021/08/03 02:19:37;;;;;;;1.48;0.40;;;;;;;13.21;53.23;101389.53;5029898;28;20120;-71
2021/08/03 02:22:05;;;;;;;1.40;0.50;;;;;;;13.13;52.97;101386.38;5026786;28;20608;-71
2021/08/03 02:24:34;;;;;;;1.23;0.55;;;;;;;13.06;53.49;101385.78;5025231;28;20040;-69
2021/08/03 02:27:02;;;;;;;2.00;0.30;;;;;;;13.04;53.54;101401.59;5026780;28;20053;-69
2021/08/03 02:29:30;;;;;;;1.17;0.65;;;;;;;12.94;53.55;101396.78;5030342;28;20564;-70
2021/08/03 02:32:15;;;;;;;6.30;0.52;;;;;;;12.95;53.85;101393.25;5032387;28;20040;-70
2021/08/03 02:35:10;;;;;;;1.88;0.40;;;;;;;12.98;54.00;101403.63;5024956;28;20908;-69
2021/08/03 02:37:43;;;;;;;2.15;0.40;;;;;;;13.00;53.65;101402.63;5012217;28;20034;-75
2021/08/03 02:40:10;;;;;;;5.30;0.70;;;;;;;12.99;53.59;101400.09;5029136;28;20033;-70
2021/08/03 02:43:00;;;;;;;1.35;0.57;;;;;;;12.96;53.46;101398.47;5030269;28;20029;-70
2021/08/03 02:45:27;;;;;;;1.77;0.40;;;;;;;12.86;53.86;101400.59;5028943;28;20037;-70
2021/08/03 02:47:57;;;;;;;2.95;0.80;;;;;;;12.79;53.91;101399.13;5027442;28;20049;-69
2021/08/03 02:50:27;;;;;;;1.20;0.38;;;;;;;12.89;53.80;101399.59;5029440;28;20220;-72
2021/08/03 02:52:58;;;;;;;3.72;0.40;;;;;;;12.84;53.51;101396.31;5030539;28;20038;-69
2021/08/03 02:55:37;;;;;;;0.75;0.20;;;;;;;12.82;53.59;101399.00;5014850;28;20036;-70
2021/08/03 02:58:08;;;;;;;1.85;0.68;;;;;;;12.78;53.74;101391.31;5032264;28;20040;-71
2021/08/03 03:00:36;;;;;;;1.23;0.40;;;;;;;12.82;54.03;101395.53;5026706;28;20027;-70
2021/08/03 03:03:07;;;;;;;1.65;0.60;;;;;;;12.67;54.10;101395.22;5044843;28;20120;-70
2021/08/03 03:05:35;;;;;;;2.05;0.85;;;;;;;12.63;54.39;101393.63;5027456;28;20514;-72
2021/08/03 03:08:08;;;;;;;2.95;0.60;;;;;;;12.72;54.31;101386.34;5029272;28;20025;-71
2021/08/03 03:10:38;;;;;;;0.90;0.40;;;;;;;12.78;54.17;101391.31;5015289;28;20214;-70
2021/08/03 03:13:33;;;;;;;2.35;0.70;;;;;;;12.83;53.96;101387.63;5010623;28;20118;-71
2021/08/03 03:16:01;;;;;;;1.17;0.50;;;;;;;12.81;53.77;101392.06;5015405;28;20042;-69
2021/08/03 03:18:27;;;;;;;2.55;0.52;;;;;;;12.75;53.51;101381.81;5029823;28;20631;-70
2021/08/03 03:20:53;;;;;;;3.33;0.70;;;;;;;12.83;53.83;101376.28;5026995;28;20025;-71
2021/08/03 03:23:22;;;;;;;1.25;0.45;;;;;;;12.87;53.80;101393.56;5027401;28;20036;-70
2021/08/03 03:25:51;;;;;;;2.00;0.40;;;;;;;12.92;53.67;101391.63;5017235;28;20025;-70
2021/08/03 03:28:25;;;;;;;1.65;0.60;;;;;;;12.90;53.39;101382.97;5027590;28;20033;-70
2021/08/03 03:30:52;;;;;;;0.98;0.50;;;;;;;12.84;53.10;101383.22;5028248;28;20036;-70
2021/08/03 03:33:18;;;;;;;2.42;0.60;;;;;;;12.75;53.42;101389.69;5026985;28;20037;-69
2021/08/03 03:35:47;;;;;;;2.28;0.52;;;;;;;12.80;53.46;101389.50;5029068;28;20399;-71
2021/08/03 03:38:16;;;;;;;2.80;1.17;;;;;;;12.82;53.72;101392.91;5026266;28;20128;-70
2021/08/03 03:40:45;;;;;;;1.23;0.50;;;;;;;12.84;53.64;101396.31;5030854;28;20025;-71
2021/08/03 03:43:11;;;;;;;1.40;0.60;;;;;;;12.90;53.25;101391.69;5044016;28;20508;-71
2021/08/03 03:45:38;;;;;;;1.38;0.40;;;;;;;12.90;53.24;101394.31;5026607;28;20525;-71
2021/08/03 03:48:12;;;;;;;1.45;0.77;;;;;;;12.88;53.34;101397.91;5026431;28;20037;-70
2021/08/03 03:50:46;;;;;;;1.73;0.50;;;;;;;12.84;53.64;101396.31;5022897;28;20026;-70
2021/08/03 03:53:18;;;;;;;1.00;0.40;;;;;;;12.85;53.30;101401.53;4997157;28;20029;-71
2021/08/03 03:55:56;;;;;;;2.88;0.65;;;;;;;12.78;53.54;101397.44;5030202;28;20033;-69
2021/08/03 03:58:23;;;;;;;1.80;0.50;;;;;;;12.87;53.56;101396.19;5043974;28;20044;-71
2021/08/03 04:00:49;;;;;;;1.55;0.68;;;;;;;12.80;53.33;101400.00;5028117;28;20214;-70
2021/08/03 04:03:18;;;;;;;1.48;0.80;;;;;;;12.75;53.44;101400.19;5027723;28;20042;-70
2021/08/03 04:05:46;;;;;;;3.38;0.90;;;;;;;12.69;53.84;101401.31;5041458;28;20309;-69
2021/08/03 04:08:12;;;;;;;1.90;0.80;;;;;;;12.74;54.07;101410.75;5027471;28;20025;-70
2021/08/03 04:10:39;;;;;;;1.67;0.60;;;;;;;12.71;53.88;101406.47;5029483;28;20034;-70
2021/08/03 04:13:07;;;;;;;2.17;0.75;;;;;;;12.86;53.90;101405.00;5027158;28;20116;-70
2021/08/03 04:15:34;;;;;;;3.88;0.90;;;;;;;12.93;54.02;101403.81;5028064;28;20082;-69
2021/08/03 04:18:00;;;;;;;2.72;0.80;;;;;;;12.94;53.56;101408.16;5029560;28;20033;-70
2021/08/03 04:20:26;;;;;;;3.17;0.73;;;;;;;13.00;53.93;101407.03;5026337;28;20040;-70
2021/08/03 04:22:52;;;;;;;5.10;0.90;;;;;;;13.01;53.53;101409.59;5025035;28;20045;-70
2021/08/03 04:25:18;;;;;;;2.78;1.00;;;;;;;12.98;53.74;101406.25;5026681;28;20056;-71
2021/08/03 04:27:44;;;;;;;2.30;0.55;;;;;;;13.15;53.30;101401.16;5009214;28;20636;-71
2021/08/03 04:30:12;;;;;;;4.40;1.05;;;;;;;13.31;53.49;101396.09;5025010;28;20033;-69
2021/08/03 04:32:38;;;;;;;2.45;0.68;;;;;;;13.08;53.94;101399.72;5030642;28;20029;-69
2021/08/03 04:35:04;;;;;;;2.00;0.80;;;;;;;13.30;53.18;101400.50;5027683;28;20484;-70
2021/08/03 04:37:45;;;;;;;2.03;1.25;;;;;;;13.27;53.62;101397.13;5026275;28;20029;-70
2021/08/03 04:40:13;;;;;;;4.00;0.85;;;;;;;13.46;53.47;101403.31;5024692;28;20410;-70
2021/08/03 04:42:39;;;;;;;3.05;0.70;;;;;;;13.51;52.88;101398.69;5006757;28;20021;-69
2021/08/03 04:45:06;;;;;;;6.03;1.00;;;;;;;13.60;52.95;101396.63;5025369;28;20056;-70
2021/08/03 04:47:31;;;;;;;1.80;0.70;;;;;;;13.78;52.23;101394.94;5024699;28;20063;-70
2021/08/03 04:49:57;;;;;;;2.22;0.73;;;;;;;13.78;52.35;101398.41;5024011;28;20044;-70
2021/08/03 04:52:23;;;;;;;1.85;0.80;;;;;;;13.91;52.53;101402.19;5024834;28;20041;-70
2021/08/03 04:54:48;;;;;;;2.35;0.52;;;;;;;13.83;51.21;101399.09;5007430;28;20528;-69
2021/08/03 04:57:14;;;;;;;3.88;0.63;;;;;;;13.91;51.61;101399.56;5011336;28;20061;-71
2021/08/03 04:59:39;;;;;;;1.92;0.63;;;;;;;13.91;51.68;101402.19;5031311;28;20091;-71
2021/08/03 05:02:05;;;;;;;6.05;0.60;;;;;;;13.97;51.60;101406.31;5026751;28;20041;-71
2021/08/03 05:04:33;;;;;;;1.98;0.68;;;;;;;13.89;51.99;101403.19;5023077;28;20033;-69
2021/08/03 05:07:03;;;;;;;1.73;0.50;;;;;;;14.10;52.03;101406.63;5025092;28;20047;-72
2021/08/03 05:09:28;;;;;;;1.35;0.40;;;;;;;14.38;51.53;101400.06;5025794;28;20033;-69
2021/08/03 05:11:54;;;;;;;2.15;0.77;;;;;;;14.58;51.13;101402.59;5025444;28;20189;-71
2021/08/03 05:14:20;;;;;;;2.92;0.60;;;;;;;14.67;50.26;101386.38;5025004;28;20040;-70
2021/08/03 05:16:45;;;;;;;4.00;0.70;;;;;;;14.51;50.68;101398.56;5026522;28;20077;-69
2021/08/03 05:19:11;;;;;;;1.63;0.57;;;;;;;14.21;50.91;101388.56;5030503;28;20147;-71
2021/08/03 05:21:36;;;;;;;1.50;0.52;;;;;;;14.53;50.10;101399.34;5026447;28;20030;-70
2021/08/03 05:24:02;;;;;;;1.73;0.30;;;;;;;14.80;50.68;101393.66;5024482;28;20095;-69
2021/08/03 05:26:27;;;;;;;2.00;0.50;;;;;;;15.01;49.46;101389.09;5024880;28;20095;-70
2021/08/03 05:28:53;;;;;;;3.75;0.43;;;;;;;15.15;49.31;101392.72;5026443;28;20029;-70
2021/08/03 05:31:18;;;;;;;2.15;0.57;;;;;;;15.27;49.52;101386.00;5023636;28;20712;-69
2021/08/03 05:33:44;;;;;;;6.55;0.80;;;;;;;15.53;47.72;101394.34;5009322;28;20072;-70
2021/08/03 05:36:09;;;;;;;1.88;0.52;;;;;;;15.50;48.00;101382.16;5026866;28;20049;-70
2021/08/03 05:38:35;;;;;;;1.02;0.30;;;;;;;15.94;47.31;101397.38;5028166;28;20030;-70
2021/08/03 05:41:00;;;;;;;5.05;0.55;;;;;;;16.35;45.84;101391.66;5012630;28;20044;-70
2021/08/03 05:43:26;;;;;;;1.13;0.20;;;;;;;16.99;43.08;101396.81;5026741;28;23320;-70
2021/08/03 05:45:51;;;;;;;0.70;0.30;;;;;;;17.34;43.10;101401.78;5041885;23;20062;-67
2021/08/03 05:48:17;;;;;;;1.60;0.10;;;;;;;20.11;37.69;101408.28;5015061;28;20045;-67
2021/08/03 05:50:42;;;;;;;0.65;0.20;;;;;;;22.00;32.88;101396.59;5015594;28;20026;-67
2021/08/03 05:53:08;;;;;;;3.97;0.10;;;;;;;20.41;34.51;101405.22;5029650;28;20041;-66
2021/08/03 05:55:33;;;;;;;0.70;0.10;;;;;;;18.73;39.37;101404.53;5015940;28;20038;-68
2021/08/03 05:57:58;;;;;;;0.30;0.10;;;;;;;17.94;40.27;101414.84;5015608;28;20486;-67
2021/08/03 06:00:24;;;;;;;1.13;0.10;;;;;;;17.21;41.44;101422.81;5011860;28;20083;-67
2021/08/03 06:02:49;;;;;;;0.50;0.10;;;;;;;16.82;42.07;101416.25;5013243;28;20103;-67
2021/08/03 06:05:15;;;;;;;0.65;0.10;;;;;;;16.82;42.50;101413.63;5015712;28;20280;-67
2021/08/03 06:07:43;;;;;;;0.15;0.00;;;;;;;16.68;43.19;101424.09;5014598;28;20033;-67
2021/08/03 06:10:14;;;;;;;2.53;0.00;;;;;;;16.85;42.29;101420.53;5012839;28;20065;-67
2021/08/03 06:12:45;;;;;;;1.03;0.40;;;;;;;16.71;42.76;101419.50;5017474;28;20071;-67
2021/08/03 06:15:12;;;;;;;0.40;0.10;;;;;;;16.45;43.30;101413.06;5008946;28;20038;-67
2021/08/03 06:17:42;;;;;;;2.95;0.10;;;;;;;16.80;43.78;101410.22;5013324;28;20498;-67
2021/08/03 06:20:08;;;;;;;3.13;0.20;;;;;;;16.77;42.58;101413.91;5012090;28;20542;-67
2021/08/03 06:22:35;;;;;;;2.25;0.47;;;;;;;16.85;42.69;101425.81;5011601;28;20029;-67
2021/08/03 06:25:01;;;;;;;1.13;0.17;;;;;;;17.02;42.55;101417.75;5013673;28;20150;-68
2021/08/03 06:27:30;;;;;;;1.05;0.20;;;;;;;16.99;42.38;101417.94;5010911;28;20496;-68
2021/08/03 06:29:55;;;;;;;1.63;0.40;;;;;;;17.03;42.73;101419.47;5014555;28;20517;-67
2021/08/03 06:32:22;;;;;;;0.38;0.17;;;;;;;17.36;41.60;101421.03;5012241;28;20033;-67
2021/08/03 06:34:48;;;;;;;0.85;0.10;;;;;;;17.62;41.13;101417.66;5010827;28;20038;-67
2021/08/03 06:37:14;;;;;;;1.17;0.20;;;;;;;17.69;41.66;101428.72;5010403;28;20088;-67
2021/08/03 06:39:41;;;;;;;0.30;0.10;;;;;;;17.38;41.03;101425.28;5010524;28;20030;-67
2021/08/03 06:42:22;;;;;;;0.93;0.15;;;;;;;17.61;40.87;101425.72;5013667;28;20036;-68
2021/08/03 06:44:53;;;;;;;0.35;0.10;;;;;;;17.78;40.36;101422.88;5011544;28;20068;-66
2021/08/03 06:47:26;;;;;;;4.60;0.20;;;;;;;17.87;38.98;101416.16;4993448;28;20506;-68
2021/08/03 06:49:54;;;;;;;1.05;0.20;;;;;;;17.79;40.77;101426.38;5013746;28;20034;-69
2021/08/03 06:52:21;;;;;;;0.70;0.10;;;;;;;17.61;41.06;101431.84;5011233;28;20045;-68
2021/08/03 06:54:55;;;;;;;4.65;0.20;;;;;;;17.70;40.07;101424.31;5014174;28;20021;-68
2021/08/03 06:57:22;;;;;;;0.47;0.10;;;;;;;17.86;40.93;101430.31;5013108;28;20483;-68
2021/08/03 06:59:58;;;;;;;1.38;0.20;;;;;;;18.13;39.62;101426.91;5015795;28;20090;-68
2021/08/03 07:02:29;;;;;;;1.65;0.15;;;;;;;18.45;38.96;101428.38;5010477;28;20056;-69
2021/08/03 07:04:58;;;;;;;0.57;0.10;;;;;;;18.36;38.69;101423.66;5010395;28;20049;-69
2021/08/03 07:07:25;;;;;;;1.88;0.10;;;;;;;18.63;38.43;101436.03;5011139;28;20499;-69
2021/08/03 07:09:53;;;;;;;0.60;0.13;;;;;;;18.98;37.68;101427.59;5011262;28;20026;-69
2021/08/03 07:12:20;;;;;;;1.48;0.20;;;;;;;19.17;37.58;101425.41;5026050;28;20041;-68
2021/08/03 07:14:47;;;;;;;0.30;0.10;;;;;;;19.06;36.83;101430.59;5013317;28;20230;-69
2021/08/03 07:17:14;;;;;;;0.65;0.10;;;;;;;18.86;37.59;101423.94;5012609;28;20065;-68
2021/08/03 07:19:40;;;;;;;1.35;0.10;;;;;;;19.06;37.84;101425.28;5012556;28;20033;-67
2021/08/03 07:22:11;;;;;;;0.43;0.10;;;;;;;19.20;37.44;101419.91;5010614;28;20045;-67
2021/08/03 07:24:38;;;;;;;1.65;0.03;;;;;;;19.63;36.56;101418.75;5016055;28;20038;-67
2021/08/03 07:27:04;;;;;;;1.77;0.45;;;;;;;20.09;34.57;101418.16;5011591;28;20041;-68
2021/08/03 07:29:29;;;;;;;0.10;0.10;;;;;;;20.56;33.48;101413.03;5013185;28;20030;-67
2021/08/03 07:31:55;;;;;;;1.73;0.20;;;;;;;21.75;31.24;101422.50;5017059;28;20402;-67
2021/08/03 07:34:20;;;;;;;2.00;0.10;;;;;;;21.64;31.78;101413.69;5009958;28;20057;-69
2021/08/03 07:36:46;;;;;;;0.30;0.30;;;;;;;22.29;31.20;101414.69;5012250;28;20072;-69
2021/08/03 07:39:11;;;;;;;0.50;0.10;;;;;;;22.71;29.38;101414.81;5010686;28;20030;-68
2021/08/03 07:41:38;;;;;;;0.10;0.10;;;;;;;24.24;28.10;101419.41;5013986;28;20622;-67
2021/08/03 07:44:04;;;;;;;0.50;0.10;;;;;;;23.02;28.85;101420.25;5013158;28;20040;-70
2021/08/03 07:46:31;;;;;;;0.40;0.10;;;;;;;23.21;29.57;101420.38;5009195;28;20037;-67
2021/08/03 07:48:57;;;;;;;3.70;1.40;;;;;;;24.30;27.46;101415.31;5012409;28;20493;-68
2021/08/03 07:51:25;;;;;;;0.38;0.10;;;;;;;24.73;26.20;101411.44;5012899;28;20499;-67
2021/08/03 07:53:50;;;;;;;0.22;0.10;;;;;;;25.93;24.28;101416.19;5016801;28;20026;-70
2021/08/03 07:56:17;;;;;;;0.40;0.10;;;;;;;27.37;23.87;101400.88;5013595;28;20029;-67
2021/08/03 07:58:42;;;;;;;1.33;0.00;;;;;;;29.81;19.97;101403.84;5012680;28;20034;-68
2021/08/03 08:01:08;;;;;;;2.80;0.20;;;;;;;30.58;19.90;101397.66;5015355;28;20033;-68
2021/08/03 08:03:35;;;;;;;0.75;0.10;;;;;;;31.64;18.54;101394.88;5009208;28;20038;-69
2021/08/03 08:06:02;;;;;;;4.18;0.10;;;;;;;32.27;18.18;101401.38;5022860;28;20131;-68
2021/08/03 08:08:28;;;;;;;0.15;0.10;;;;;;;31.48;17.72;101396.75;5013273;28;20487;-68
2021/08/03 08:10:54;;;;;;;0.40;0.10;;;;;;;29.73;20.29;101396.66;5007376;28;20040;-67
2021/08/03 08:13:19;;;;;;;0.57;0.10;;;;;;;28.50;20.38;101393.31;5009374;28;20037;-68
2021/08/03 08:15:45;;;;;;;0.35;0.10;;;;;;;26.15;23.21;101394.34;5012395;28;20521;-68
2021/08/03 08:18:10;;;;;;;0.10;0.00;;;;;;;23.75;27.42;101392.56;5015308;28;20101;-68
2021/08/03 08:20:37;;;;;;;1.35;0.20;;;;;;;22.38;29.74;101385.53;5011639;28;20032;-67
2021/08/03 08:23:03;;;;;;;1.25;0.10;;;;;;;21.79;30.00;101382.38;5012790;28;20029;-68
2021/08/03 08:25:29;;;;;;;1.13;0.10;;;;;;;22.69;28.51;101387.47;5011841;28;20083;-68
2021/08/03 08:27:55;;;;;;;0.15;0.05;;;;;;;25.87;25.29;101380.97;5011651;28;20042;-68
2021/08/03 08:30:20;;;;;;;1.38;0.10;;;;;;;27.46;21.65;101378.44;5009637;28;20069;-68
2021/08/03 08:32:46;;;;;;;0.35;0.10;;;;;;;26.29;22.66;101383.13;5010547;28;20034;-68
2021/08/03 08:35:11;;;;;;;0.98;0.10;;;;;;;23.72;26.05;101379.50;5012205;28;20061;-69
2021/08/03 08:37:38;;;;;;;1.15;0.17;;;;;;;22.25;28.06;101386.63;5010946;28;20064;-69
2021/08/03 08:40:06;;;;;;;0.65;0.10;;;;;;;21.47;30.41;101383.94;5007701;28;20033;-68
2021/08/03 08:42:33;;;;;;;2.08;0.20;;;;;;;20.99;30.99;101384.09;5012288;28;20487;-66
2021/08/03 08:45:00;;;;;;;1.67;0.20;;;;;;;20.60;31.98;101391.44;5010285;28;20041;-68
2021/08/03 08:47:26;;;;;;;0.75;0.10;;;;;;;19.65;34.42;101391.19;5013894;28;20037;-69
2021/08/03 08:49:52;;;;;;;1.55;0.20;;;;;;;18.99;35.68;101389.56;5011172;28;20030;-69
2021/08/03 08:52:18;;;;;;;1.70;0.20;;;;;;;18.34;37.19;101390.28;5012239;28;20056;-69
2021/08/03 08:54:44;;;;;;;0.85;0.10;;;;;;;18.50;37.24;101388.38;5011555;28;20036;-69
2021/08/03 08:57:10;;;;;;;0.30;0.10;;;;;;;18.55;37.28;101398.66;5009239;28;20116;-68
2021/08/03 08:59:37;;;;;;;1.50;0.10;;;;;;;18.52;37.64;101390.91;5006866;28;20404;-69
2021/08/03 09:02:03;;;;;;;0.25;0.10;;;;;;;18.31;37.69;101393.16;5007652;28;20103;-69
2021/08/03 09:04:29;;;;;;;0.30;0.10;;;;;;;18.15;37.67;101390.63;5011193;28;20037;-68
2021/08/03 09:07:06;;;;;;;0.63;0.30;;;;;;;17.84;38.06;101390.75;5011949;28;20511;-68
2021/08/03 09:09:45;;;;;;;2.38;0.10;;;;;;;18.10;38.78;101398.00;5008891;28;20033;-68
2021/08/03 09:12:12;;;;;;;2.92;0.30;;;;;;;18.25;38.20;101395.25;5010961;28;20061;-69
2021/08/03 09:14:43;;;;;;;1.23;0.20;;;;;;;18.17;38.66;101394.03;5014022;28;20034;-68
2021/08/03 09:17:24;;;;;;;0.75;0.20;;;;;;;18.23;38.71;101388.38;5011190;28;20041;-70
2021/08/03 09:19:49;;;;;;;1.30;0.13;;;;;;;18.11;38.83;101392.59;5011098;28;20075;-69
2021/08/03 09:22:18;;;;;;;1.17;0.17;;;;;;;18.31;38.31;101395.81;5009585;28;20465;-68
2021/08/03 09:24:46;;;;;;;0.50;0.10;;;;;;;18.28;38.24;101396.84;5010572;28;20305;-69
2021/08/03 09:27:31;;;;;;;0.52;0.30;;;;;;;18.13;38.28;101395.16;5007322;28;20034;-69
2021/08/03 09:29:57;;;;;;;0.47;0.15;;;;;;;18.58;36.58;101398.44;5011429;28;20030;-69
2021/08/03 09:32:30;;;;;;;2.53;0.10;;;;;;;18.68;36.19;101399.53;5009482;28;20056;-68
2021/08/03 09:35:11;;;;;;;0.77;0.20;;;;;;;19.12;35.75;101394.88;5011540;28;20124;-68
2021/08/03 09:37:38;;;;;;;0.65;0.10;;;;;;;19.23;35.13;101393.22;5011587;28;20032;-69
2021/08/03 09:40:08;;;;;;;1.30;0.30;;;;;;;19.47;34.29;101389.78;5008107;28;20101;-67
2021/08/03 09:42:34;;;;;;;0.32;0.10;;;;;;;19.57;34.79;101393.53;5012495;28;20119;-67
2021/08/03 09:45:03;;;;;;;2.33;0.20;;;;;;;19.96;34.02;101386.34;5009414;28;20509;-68
2021/08/03 09:47:30;;;;;;;7.55;0.35;;;;;;;20.00;33.51;101386.97;5005199;28;20030;-67
2021/08/03 09:49:58;;;;;;;2.20;0.22;;;;;;;20.04;32.88;101388.47;5008762;28;20494;-68
2021/08/03 09:52:27;;;;;;;0.43;0.25;;;;;;;20.28;33.21;101383.19;5011359;28;20521;-68
2021/08/03 09:55:14;;;;;;;0.50;0.10;;;;;;;20.49;33.05;101378.94;5009293;28;20057;-67
2021/08/03 09:57:41;;;;;;;2.05;0.10;;;;;;;20.79;31.74;101374.09;5025598;28;20378;-67
2021/08/03 10:00:35;;;;;;;0.30;0.20;;;;;;;20.95;31.03;101385.28;5007401;28;20048;-67
2021/08/03 10:03:02;;;;;;;1.02;0.10;;;;;;;21.21;30.60;101375.31;5011563;28;20041;-69
2021/08/03 10:05:28;;;;;;;0.95;0.10;;;;;;;21.57;30.32;101381.41;5010401;28;20026;-68
2021/08/03 10:07:55;;;;;;;1.58;0.20;;;;;;;22.04;31.07;101379.41;5008248;28;20030;-67
2021/08/03 10:10:21;;;;;;;0.25;0.10;;;;;;;22.28;28.87;101378.41;5005185;28;20121;-68
2021/08/03 10:12:46;;;;;;;0.70;0.10;;;;;;;22.29;30.23;101375.63;5009770;28;20055;-67
2021/08/03 10:15:12;;;;;;;1.55;0.35;;;;;;;22.59;29.47;101380.22;5009251;28;20033;-68
2021/08/03 10:17:39;;;;;;;0.50;0.20;;;;;;;22.59;29.09;101380.22;5010354;28;20526;-68
2021/08/03 10:20:09;;;;;;;1.52;0.10;;;;;;;22.48;28.87;101379.44;5009687;28;20557;-69
2021/08/03 10:22:39;;;;;;;0.43;0.10;;;;;;;22.76;29.22;101378.84;5015020;28;20031;-68
2021/08/03 10:25:15;;;;;;;0.30;0.10;;;;;;;24.13;26.33;101369.63;5022245;28;20117;-68
2021/08/03 10:27:44;;;;;;;0.30;0.10;;;;;;;24.08;25.76;101374.56;5023022;28;20034;-69
2021/08/03 10:30:29;;;;;;;0.70;0.10;;;;;;;23.41;27.09;101376.03;5011758;28;20129;-68
2021/08/03 10:32:56;;;;;;;2.22;0.22;;;;;;;23.51;26.61;101366.22;5013275;28;20036;-68
2021/08/03 10:35:58;;;;;;;0.38;0.10;;;;;;;23.02;26.98;101375.78;5014039;28;20034;-68
2021/08/03 10:38:28;;;;;;;0.15;0.00;;;;;;;22.29;27.89;101383.63;4944694;28;20035;-68
2021/08/03 10:40:57;;;;;;;1.38;0.10;;;;;;;22.26;28.70;101388.34;5006331;28;20408;-70
2021/08/03 10:43:34;;;;;;;3.72;0.20;;;;;;;22.04;28.64;101379.41;4993894;28;20034;-68
2021/08/03 10:46:06;;;;;;;0.68;0.10;;;;;;;22.53;29.17;101383.38;5013753;28;20033;-69
2021/08/03 10:48:38;;;;;;;0.73;0.10;;;;;;;22.87;27.85;101377.91;5013506;28;20372;-68
2021/08/03 10:51:12;;;;;;;0.40;0.17;;;;;;;22.79;28.28;101372.41;5014077;28;20042;-67
2021/08/03 10:53:53;;;;;;;0.63;0.10;;;;;;;22.24;28.90;101382.28;5012572;28;20065;-67
2021/08/03 10:56:19;;;;;;;1.30;0.37;;;;;;;21.48;29.97;101379.47;5011849;28;20509;-67
2021/08/03 10:58:45;;;;;;;2.17;0.13;;;;;;;21.43;30.57;101378.97;5011981;28;20367;-68
2021/08/03 11:01:10;;;;;;;0.20;0.10;;;;;;;21.75;29.20;101374.59;5012241;28;20132;-68
2021/08/03 11:03:36;;;;;;;0.40;0.20;;;;;;;21.56;30.46;101380.56;5015194;28;20363;-68
2021/08/03 11:06:11;;;;;;;1.55;0.20;;;;;;;21.22;29.80;101379.69;5014325;28;20037;-68
2021/08/03 11:08:39;;;;;;;2.70;0.82;;;;;;;21.60;30.08;101375.84;5011704;28;20037;-68
2021/08/03 11:11:29;;;;;;;0.40;0.35;;;;;;;21.29;30.79;101378.22;5015275;28;20457;-68
2021/08/03 11:14:05;;;;;;;2.10;0.25;;;;;;;21.28;30.95;101378.34;5015359;28;20096;-69
2021/08/03 11:16:31;;;;;;;1.67;0.22;;;;;;;21.49;30.12;101378.47;5016880;28;20046;-68
2021/08/03 11:18:58;;;;;;;1.98;0.10;;;;;;;21.26;30.27;101374.94;5012892;28;20033;-68
2021/08/03 11:21:46;;;;;;;0.20;0.10;;;;;;;21.02;30.50;101381.22;5011556;28;20030;-68
2021/08/03 11:24:30;;;;;;;2.15;0.10;;;;;;;21.20;30.76;101372.75;5010734;28;20137;-68
2021/08/03 11:26:57;;;;;;;0.35;0.10;;;;;;;21.28;30.51;101381.84;5009072;28;20049;-68
2021/08/03 11:29:25;;;;;;;0.77;0.10;;;;;;;21.54;28.76;101381.66;5008501;28;20057;-67
2021/08/03 11:31:56;;;;;;;0.30;0.10;;;;;;;21.79;29.02;101379.69;5015837;28;20036;-68
2021/08/03 11:34:23;;;;;;;0.68;0.10;;;;;;;21.71;28.42;101372.31;5011825;28;20083;-68